sensor_id;sensor_type;location;lat;lon;timestamp;P1;durP1;ratioP1;P2;durP2;ratioP2
64063;SDS011;50314;50.618;10.642;2022-10-16T00:04:10;0.60;;;0.60;;
64063;SDS011;50314;50.618;10.642;2022-10-16T00:06:35;0.60;;;0.60;;
64063;SDS011;50314;50.618;10.642;2022-10-16T00:09:01;0.60;;;0.60;;
64063;SDS011;50314;50.618;10.642;2022-10-16T00:11:28;0.63;;;0.50;;
64063;SDS011;50314;50.618;10.642;2022-10-16T00:13:56;0.47;;;0.47;;
64063;SDS011;50314;50.618;10.642;2022-10-16T00:16:24;0.70;;;0.70;;
64063;SDS011;50314;50.618;10.642;2022-10-16T00:18:50;0.50;;;0.50;;
64063;SDS011;50314;50.618;10.642;2022-10-16T00:21:16;0.70;;;0.55;;
64063;SDS011;50314;50.618;10.642;2022-10-16T00:23:49;0.30;;;0.30;;
64063;SDS011;50314;50.618;10.642;2022-10-16T00:26:17;0.70;;;0.65;;
64063;SDS011;50314;50.618;10.642;2022-10-16T00:28:45;0.93;;;0.60;;
64063;SDS011;50314;50.618;10.642;2022-10-16T00:31:12;0.40;;;0.40;;
64063;SDS011;50314;50.618;10.642;2022-10-16T00:33:38;0.32;;;0.32;;
64063;SDS011;50314;50.618;10.642;2022-10-16T00:36:05;0.60;;;0.55;;
64063;SDS011;50314;50.618;10.642;2022-10-16T00:38:32;0.70;;;0.70;;
64063;SDS011;50314;50.618;10.642;2022-10-16T00:40:59;0.70;;;0.70;;
64063;SDS011;50314;50.618;10.642;2022-10-16T00:43:39;0.68;;;0.60;;
64063;SDS011;50314;50.618;10.642;2022-10-16T00:46:17;0.50;;;0.50;;
64063;SDS011;50314;50.618;10.642;2022-10-16T00:51:23;0.60;;;0.60;;
64063;SDS011;50314;50.618;10.642;2022-10-16T00:53:53;0.50;;;0.50;;
64063;SDS011;50314;50.618;10.642;2022-10-16T00:56:20;0.50;;;0.50;;
64063;SDS011;50314;50.618;10.642;2022-10-16T00:58:45;0.47;;;0.45;;
64063;SDS011;50314;50.618;10.642;2022-10-16T01:01:11;0.70;;;0.70;;
64063;SDS011;50314;50.618;10.642;2022-10-16T01:03:36;0.60;;;0.60;;
64063;SDS011;50314;50.618;10.642;2022-10-16T01:08:41;0.70;;;0.70;;
64063;SDS011;50314;50.618;10.642;2022-10-16T01:11:20;0.52;;;0.50;;
64063;SDS011;50314;50.618;10.642;2022-10-16T01:13:55;0.55;;;0.52;;
64063;SDS011;50314;50.618;10.642;2022-10-16T01:16:44;0.57;;;0.57;;
64063;SDS011;50314;50.618;10.642;2022-10-16T01:20:07;0.75;;;0.63;;
64063;SDS011;50314;50.618;10.642;2022-10-16T01:22:23;0.50;;;0.50;;
64063;SDS011;50314;50.618;10.642;2022-10-16T01:24:56;0.50;;;0.50;;
64063;SDS011;50314;50.618;10.642;2022-10-16T01:27:26;0.50;;;0.50;;
64063;SDS011;50314;50.618;10.642;2022-10-16T01:30:00;0.45;;;0.40;;
64063;SDS011;50314;50.618;10.642;2022-10-16T01:32:38;0.60;;;0.60;;
64063;SDS011;50314;50.618;10.642;2022-10-16T01:35:23;0.43;;;0.43;;
64063;SDS011;50314;50.618;10.642;2022-10-16T01:38:07;0.60;;;0.60;;
64063;SDS011;50314;50.618;10.642;2022-10-16T01:40:34;0.50;;;0.50;;
64063;SDS011;50314;50.618;10.642;2022-10-16T01:43:12;0.60;;;0.60;;
64063;SDS011;50314;50.618;10.642;2022-10-16T01:45:41;0.75;;;0.57;;
64063;SDS011;50314;50.618;10.642;2022-10-16T01:48:09;0.50;;;0.50;;
64063;SDS011;50314;50.618;10.642;2022-10-16T01:50:39;0.50;;;0.50;;
64063;SDS011;50314;50.618;10.642;2022-10-16T01:53:08;0.55;;;0.52;;
64063;SDS011;50314;50.618;10.642;2022-10-16T01:55:38;0.50;;;0.50;;
64063;SDS011;50314;50.618;10.642;2022-10-16T01:58:10;0.57;;;0.57;;
64063;SDS011;50314;50.618;10.642;2022-10-16T02:00:38;0.60;;;0.60;;
64063;SDS011;50314;50.618;10.642;2022-10-16T02:03:06;1.45;;;0.63;;
64063;SDS011;50314;50.618;10.642;2022-10-16T02:05:45;0.50;;;0.50;;
64063;SDS011;50314;50.618;10.642;2022-10-16T02:08:14;0.30;;;0.30;;
64063;SDS011;50314;50.618;10.642;2022-10-16T02:10:39;0.55;;;0.50;;
64063;SDS011;50314;50.618;10.642;2022-10-16T02:13:12;0.63;;;0.63;;
64063;SDS011;50314;50.618;10.642;2022-10-16T02:15:42;0.50;;;0.50;;
64063;SDS011;50314;50.618;10.642;2022-10-16T02:18:07;0.60;;;0.60;;
64063;SDS011;50314;50.618;10.642;2022-10-16T02:26:06;0.63;;;0.40;;
64063;SDS011;50314;50.618;10.642;2022-10-16T02:28:45;1.05;;;0.60;;
64063;SDS011;50314;50.618;10.642;2022-10-16T02:31:18;0.60;;;0.60;;
64063;SDS011;50314;50.618;10.642;2022-10-16T02:33:51;0.70;;;0.60;;
64063;SDS011;50314;50.618;10.642;2022-10-16T02:36:19;0.50;;;0.50;;
64063;SDS011;50314;50.618;10.642;2022-10-16T02:38:46;0.30;;;0.30;;
64063;SDS011;50314;50.618;10.642;2022-10-16T02:41:12;0.60;;;0.60;;
64063;SDS011;50314;50.618;10.642;2022-10-16T02:43:38;0.98;;;0.50;;
64063;SDS011;50314;50.618;10.642;2022-10-16T02:46:03;0.47;;;0.40;;
64063;SDS011;50314;50.618;10.642;2022-10-16T02:48:28;0.60;;;0.60;;
64063;SDS011;50314;50.618;10.642;2022-10-16T02:50:54;0.30;;;0.30;;
64063;SDS011;50314;50.618;10.642;2022-10-16T02:53:19;0.50;;;0.50;;
64063;SDS011;50314;50.618;10.642;2022-10-16T02:55:45;0.50;;;0.50;;
64063;SDS011;50314;50.618;10.642;2022-10-16T02:58:10;0.40;;;0.40;;
64063;SDS011;50314;50.618;10.642;2022-10-16T03:00:36;0.50;;;0.50;;
64063;SDS011;50314;50.618;10.642;2022-10-16T03:03:01;0.43;;;0.35;;
64063;SDS011;50314;50.618;10.642;2022-10-16T03:05:26;0.50;;;0.50;;
64063;SDS011;50314;50.618;10.642;2022-10-16T03:07:52;0.50;;;0.50;;
64063;SDS011;50314;50.618;10.642;2022-10-16T03:10:17;0.50;;;0.50;;
64063;SDS011;50314;50.618;10.642;2022-10-16T03:12:43;0.50;;;0.50;;
64063;SDS011;50314;50.618;10.642;2022-10-16T03:15:09;0.55;;;0.52;;
64063;SDS011;50314;50.618;10.642;2022-10-16T03:17:34;0.50;;;0.50;;
64063;SDS011;50314;50.618;10.642;2022-10-16T03:20:00;0.50;;;0.50;;
64063;SDS011;50314;50.618;10.642;2022-10-16T03:22:25;0.40;;;0.40;;
64063;SDS011;50314;50.618;10.642;2022-10-16T03:24:51;0.40;;;0.40;;
64063;SDS011;50314;50.618;10.642;2022-10-16T03:27:16;0.50;;;0.50;;
64063;SDS011;50314;50.618;10.642;2022-10-16T03:29:42;0.40;;;0.40;;
64063;SDS011;50314;50.618;10.642;2022-10-16T03:32:07;0.52;;;0.52;;
64063;SDS011;50314;50.618;10.642;2022-10-16T03:34:32;0.60;;;0.60;;
64063;SDS011;50314;50.618;10.642;2022-10-16T03:36:58;0.30;;;0.30;;
64063;SDS011;50314;50.618;10.642;2022-10-16T03:39:23;0.50;;;0.50;;
64063;SDS011;50314;50.618;10.642;2022-10-16T03:41:49;1.67;;;0.50;;
64063;SDS011;50314;50.618;10.642;2022-10-16T03:44:14;0.68;;;0.68;;
64063;SDS011;50314;50.618;10.642;2022-10-16T03:46:40;0.65;;;0.63;;
64063;SDS011;50314;50.618;10.642;2022-10-16T03:49:05;0.60;;;0.60;;
64063;SDS011;50314;50.618;10.642;2022-10-16T03:51:31;0.50;;;0.50;;
64063;SDS011;50314;50.618;10.642;2022-10-16T03:53:56;0.68;;;0.65;;
64063;SDS011;50314;50.618;10.642;2022-10-16T03:56:22;0.50;;;0.50;;
64063;SDS011;50314;50.618;10.642;2022-10-16T03:58:47;0.73;;;0.73;;
64063;SDS011;50314;50.618;10.642;2022-10-16T04:01:13;0.60;;;0.60;;
64063;SDS011;50314;50.618;10.642;2022-10-16T04:03:38;0.70;;;0.70;;
64063;SDS011;50314;50.618;10.642;2022-10-16T04:06:03;0.93;;;0.93;;
64063;SDS011;50314;50.618;10.642;2022-10-16T04:08:29;1.05;;;0.80;;
64063;SDS011;50314;50.618;10.642;2022-10-16T04:10:54;0.60;;;0.60;;
64063;SDS011;50314;50.618;10.642;2022-10-16T04:13:20;0.70;;;0.70;;
64063;SDS011;50314;50.618;10.642;2022-10-16T04:15:45;0.63;;;0.63;;
64063;SDS011;50314;50.618;10.642;2022-10-16T04:18:11;0.60;;;0.60;;
64063;SDS011;50314;50.618;10.642;2022-10-16T04:20:36;0.77;;;0.77;;
64063;SDS011;50314;50.618;10.642;2022-10-16T04:23:02;0.75;;;0.75;;
64063;SDS011;50314;50.618;10.642;2022-10-16T04:25:27;0.70;;;0.70;;
64063;SDS011;50314;50.618;10.642;2022-10-16T04:27:53;0.60;;;0.60;;
64063;SDS011;50314;50.618;10.642;2022-10-16T04:30:19;0.70;;;0.70;;
64063;SDS011;50314;50.618;10.642;2022-10-16T04:32:49;0.68;;;0.68;;
64063;SDS011;50314;50.618;10.642;2022-10-16T04:35:16;0.50;;;0.50;;
64063;SDS011;50314;50.618;10.642;2022-10-16T04:37:42;0.60;;;0.60;;
64063;SDS011;50314;50.618;10.642;2022-10-16T04:40:07;0.80;;;0.80;;
64063;SDS011;50314;50.618;10.642;2022-10-16T04:42:33;0.70;;;0.70;;
64063;SDS011;50314;50.618;10.642;2022-10-16T04:44:58;0.75;;;0.73;;
64063;SDS011;50314;50.618;10.642;2022-10-16T04:47:23;0.60;;;0.60;;
64063;SDS011;50314;50.618;10.642;2022-10-16T04:49:49;0.70;;;0.70;;
64063;SDS011;50314;50.618;10.642;2022-10-16T04:52:14;0.88;;;0.70;;
64063;SDS011;50314;50.618;10.642;2022-10-16T04:54:40;0.70;;;0.60;;
64063;SDS011;50314;50.618;10.642;2022-10-16T04:57:05;0.70;;;0.57;;
64063;SDS011;50314;50.618;10.642;2022-10-16T04:59:31;0.70;;;0.70;;
64063;SDS011;50314;50.618;10.642;2022-10-16T05:01:56;0.70;;;0.70;;
64063;SDS011;50314;50.618;10.642;2022-10-16T05:04:22;0.50;;;0.50;;
64063;SDS011;50314;50.618;10.642;2022-10-16T05:06:47;0.60;;;0.60;;
64063;SDS011;50314;50.618;10.642;2022-10-16T05:09:13;0.60;;;0.60;;
64063;SDS011;50314;50.618;10.642;2022-10-16T05:11:38;0.90;;;0.90;;
64063;SDS011;50314;50.618;10.642;2022-10-16T05:14:04;0.70;;;0.70;;
64063;SDS011;50314;50.618;10.642;2022-10-16T05:16:29;0.60;;;0.60;;
64063;SDS011;50314;50.618;10.642;2022-10-16T05:18:56;0.60;;;0.60;;
64063;SDS011;50314;50.618;10.642;2022-10-16T05:21:21;0.60;;;0.60;;
64063;SDS011;50314;50.618;10.642;2022-10-16T05:23:47;0.90;;;0.90;;
64063;SDS011;50314;50.618;10.642;2022-10-16T05:26:12;0.60;;;0.60;;
64063;SDS011;50314;50.618;10.642;2022-10-16T05:28:38;1.08;;;0.82;;
64063;SDS011;50314;50.618;10.642;2022-10-16T05:31:06;0.75;;;0.75;;
64063;SDS011;50314;50.618;10.642;2022-10-16T05:33:33;0.60;;;0.60;;
64063;SDS011;50314;50.618;10.642;2022-10-16T05:36:06;0.70;;;0.70;;
64063;SDS011;50314;50.618;10.642;2022-10-16T05:38:33;0.82;;;0.82;;
64063;SDS011;50314;50.618;10.642;2022-10-16T05:40:59;0.40;;;0.40;;
64063;SDS011;50314;50.618;10.642;2022-10-16T05:43:26;0.60;;;0.60;;
64063;SDS011;50314;50.618;10.642;2022-10-16T05:45:56;0.65;;;0.65;;
64063;SDS011;50314;50.618;10.642;2022-10-16T05:48:30;0.80;;;0.80;;
64063;SDS011;50314;50.618;10.642;2022-10-16T05:51:01;0.60;;;0.60;;
64063;SDS011;50314;50.618;10.642;2022-10-16T05:53:29;0.60;;;0.60;;
64063;SDS011;50314;50.618;10.642;2022-10-16T05:58:21;0.70;;;0.70;;
64063;SDS011;50314;50.618;10.642;2022-10-16T06:00:58;0.60;;;0.60;;
64063;SDS011;50314;50.618;10.642;2022-10-16T06:03:25;0.55;;;0.55;;
64063;SDS011;50314;50.618;10.642;2022-10-16T06:05:51;0.73;;;0.73;;
64063;SDS011;50314;50.618;10.642;2022-10-16T06:08:17;0.90;;;0.90;;
64063;SDS011;50314;50.618;10.642;2022-10-16T06:10:44;0.50;;;0.50;;
64063;SDS011;50314;50.618;10.642;2022-10-16T06:13:10;0.90;;;0.90;;
64063;SDS011;50314;50.618;10.642;2022-10-16T06:15:37;0.70;;;0.70;;
64063;SDS011;50314;50.618;10.642;2022-10-16T06:18:07;0.68;;;0.68;;
64063;SDS011;50314;50.618;10.642;2022-10-16T06:20:33;0.55;;;0.55;;
64063;SDS011;50314;50.618;10.642;2022-10-16T06:22:58;0.60;;;0.60;;
64063;SDS011;50314;50.618;10.642;2022-10-16T06:25:24;0.60;;;0.60;;
64063;SDS011;50314;50.618;10.642;2022-10-16T06:27:49;0.60;;;0.60;;
64063;SDS011;50314;50.618;10.642;2022-10-16T06:30:15;0.50;;;0.50;;
64063;SDS011;50314;50.618;10.642;2022-10-16T06:32:40;0.50;;;0.50;;
64063;SDS011;50314;50.618;10.642;2022-10-16T06:35:05;0.70;;;0.70;;
64063;SDS011;50314;50.618;10.642;2022-10-16T06:37:31;0.60;;;0.60;;
64063;SDS011;50314;50.618;10.642;2022-10-16T06:39:56;0.70;;;0.70;;
64063;SDS011;50314;50.618;10.642;2022-10-16T06:42:22;0.95;;;0.60;;
64063;SDS011;50314;50.618;10.642;2022-10-16T06:44:47;1.02;;;0.85;;
64063;SDS011;50314;50.618;10.642;2022-10-16T06:47:13;0.70;;;0.70;;
64063;SDS011;50314;50.618;10.642;2022-10-16T06:49:38;0.80;;;0.80;;
64063;SDS011;50314;50.618;10.642;2022-10-16T06:52:03;0.60;;;0.60;;
64063;SDS011;50314;50.618;10.642;2022-10-16T06:54:29;0.40;;;0.40;;
64063;SDS011;50314;50.618;10.642;2022-10-16T06:56:55;0.65;;;0.60;;
64063;SDS011;50314;50.618;10.642;2022-10-16T06:59:21;0.50;;;0.50;;
64063;SDS011;50314;50.618;10.642;2022-10-16T07:01:46;0.60;;;0.60;;
64063;SDS011;50314;50.618;10.642;2022-10-16T07:04:12;0.70;;;0.70;;
64063;SDS011;50314;50.618;10.642;2022-10-16T07:06:37;0.70;;;0.70;;
64063;SDS011;50314;50.618;10.642;2022-10-16T07:09:04;0.60;;;0.60;;
64063;SDS011;50314;50.618;10.642;2022-10-16T07:11:32;0.90;;;0.90;;
64063;SDS011;50314;50.618;10.642;2022-10-16T07:13:58;0.70;;;0.70;;
64063;SDS011;50314;50.618;10.642;2022-10-16T07:16:25;0.70;;;0.70;;
64063;SDS011;50314;50.618;10.642;2022-10-16T07:18:53;1.02;;;0.55;;
64063;SDS011;50314;50.618;10.642;2022-10-16T07:21:24;0.60;;;0.60;;
64063;SDS011;50314;50.618;10.642;2022-10-16T07:23:52;0.60;;;0.60;;
64063;SDS011;50314;50.618;10.642;2022-10-16T07:26:19;0.70;;;0.70;;
64063;SDS011;50314;50.618;10.642;2022-10-16T07:28:45;0.80;;;0.70;;
64063;SDS011;50314;50.618;10.642;2022-10-16T07:31:11;0.60;;;0.60;;
64063;SDS011;50314;50.618;10.642;2022-10-16T07:33:38;0.73;;;0.73;;
64063;SDS011;50314;50.618;10.642;2022-10-16T07:36:05;0.63;;;0.60;;
64063;SDS011;50314;50.618;10.642;2022-10-16T07:38:31;0.82;;;0.82;;
64063;SDS011;50314;50.618;10.642;2022-10-16T07:40:57;0.88;;;0.60;;
64063;SDS011;50314;50.618;10.642;2022-10-16T07:43:26;1.33;;;0.90;;
64063;SDS011;50314;50.618;10.642;2022-10-16T07:45:53;0.80;;;0.80;;
64063;SDS011;50314;50.618;10.642;2022-10-16T07:48:20;0.95;;;0.95;;
64063;SDS011;50314;50.618;10.642;2022-10-16T07:50:46;1.00;;;1.00;;
64063;SDS011;50314;50.618;10.642;2022-10-16T07:53:11;0.80;;;0.80;;
64063;SDS011;50314;50.618;10.642;2022-10-16T07:55:37;1.50;;;1.00;;
64063;SDS011;50314;50.618;10.642;2022-10-16T07:58:03;0.90;;;0.90;;
64063;SDS011;50314;50.618;10.642;2022-10-16T08:00:29;0.90;;;0.90;;
64063;SDS011;50314;50.618;10.642;2022-10-16T08:02:56;1.50;;;1.08;;
64063;SDS011;50314;50.618;10.642;2022-10-16T08:05:24;0.80;;;0.80;;
64063;SDS011;50314;50.618;10.642;2022-10-16T08:07:50;1.10;;;1.00;;
64063;SDS011;50314;50.618;10.642;2022-10-16T08:10:16;2.75;;;1.02;;
64063;SDS011;50314;50.618;10.642;2022-10-16T08:12:43;1.30;;;1.13;;
64063;SDS011;50314;50.618;10.642;2022-10-16T08:15:09;1.10;;;1.00;;
64063;SDS011;50314;50.618;10.642;2022-10-16T08:17:34;2.50;;;1.10;;
64063;SDS011;50314;50.618;10.642;2022-10-16T08:20:00;1.73;;;1.20;;
64063;SDS011;50314;50.618;10.642;2022-10-16T08:22:26;4.65;;;1.42;;
64063;SDS011;50314;50.618;10.642;2022-10-16T08:24:52;6.32;;;2.05;;
64063;SDS011;50314;50.618;10.642;2022-10-16T08:27:17;6.47;;;2.10;;
64063;SDS011;50314;50.618;10.642;2022-10-16T08:29:43;5.63;;;1.80;;
64063;SDS011;50314;50.618;10.642;2022-10-16T08:32:08;3.88;;;1.92;;
64063;SDS011;50314;50.618;10.642;2022-10-16T08:34:33;2.97;;;1.67;;
64063;SDS011;50314;50.618;10.642;2022-10-16T08:36:59;4.28;;;1.60;;
64063;SDS011;50314;50.618;10.642;2022-10-16T08:39:24;4.50;;;1.52;;
64063;SDS011;50314;50.618;10.642;2022-10-16T08:41:59;3.03;;;1.42;;
64063;SDS011;50314;50.618;10.642;2022-10-16T08:45:30;2.53;;;1.42;;
64063;SDS011;50314;50.618;10.642;2022-10-16T08:47:49;3.08;;;1.55;;
64063;SDS011;50314;50.618;10.642;2022-10-16T08:50:24;1.95;;;1.30;;
64063;SDS011;50314;50.618;10.642;2022-10-16T08:52:53;1.80;;;1.45;;
64063;SDS011;50314;50.618;10.642;2022-10-16T08:56:04;1.83;;;1.13;;
64063;SDS011;50314;50.618;10.642;2022-10-16T08:58:10;2.78;;;1.20;;
64063;SDS011;50314;50.618;10.642;2022-10-16T09:00:53;1.25;;;1.02;;
64063;SDS011;50314;50.618;10.642;2022-10-16T09:14:07;1.23;;;0.80;;
64063;SDS011;50314;50.618;10.642;2022-10-16T09:16:41;1.27;;;1.17;;
64063;SDS011;50314;50.618;10.642;2022-10-16T09:19:19;2.78;;;1.38;;
64063;SDS011;50314;50.618;10.642;2022-10-16T09:21:49;1.65;;;1.23;;
64063;SDS011;50314;50.618;10.642;2022-10-16T09:24:23;1.25;;;1.02;;
64063;SDS011;50314;50.618;10.642;2022-10-16T09:26:50;0.95;;;0.90;;
64063;SDS011;50314;50.618;10.642;2022-10-16T09:29:17;2.67;;;1.25;;
64063;SDS011;50314;50.618;10.642;2022-10-16T09:31:46;1.40;;;1.30;;
64063;SDS011;50314;50.618;10.642;2022-10-16T09:34:20;2.45;;;1.00;;
64063;SDS011;50314;50.618;10.642;2022-10-16T09:36:57;1.40;;;1.30;;
64063;SDS011;50314;50.618;10.642;2022-10-16T09:39:24;1.52;;;1.30;;
64063;SDS011;50314;50.618;10.642;2022-10-16T09:41:50;1.50;;;0.90;;
64063;SDS011;50314;50.618;10.642;2022-10-16T09:44:21;1.20;;;1.00;;
64063;SDS011;50314;50.618;10.642;2022-10-16T09:46:48;1.05;;;0.80;;
64063;SDS011;50314;50.618;10.642;2022-10-16T09:49:24;1.38;;;1.10;;
64063;SDS011;50314;50.618;10.642;2022-10-16T09:51:51;1.95;;;1.23;;
64063;SDS011;50314;50.618;10.642;2022-10-16T09:54:28;1.58;;;1.10;;
64063;SDS011;50314;50.618;10.642;2022-10-16T09:57:03;1.20;;;0.88;;
64063;SDS011;50314;50.618;10.642;2022-10-16T09:59:30;1.05;;;1.00;;
64063;SDS011;50314;50.618;10.642;2022-10-16T10:02:03;1.15;;;0.90;;
64063;SDS011;50314;50.618;10.642;2022-10-16T10:04:39;1.73;;;1.20;;
64063;SDS011;50314;50.618;10.642;2022-10-16T10:07:20;0.93;;;0.90;;
64063;SDS011;50314;50.618;10.642;2022-10-16T10:09:50;1.23;;;1.13;;
64063;SDS011;50314;50.618;10.642;2022-10-16T10:12:26;3.03;;;1.10;;
64063;SDS011;50314;50.618;10.642;2022-10-16T10:14:56;2.67;;;1.30;;
64063;SDS011;50314;50.618;10.642;2022-10-16T10:17:28;1.17;;;1.10;;
64063;SDS011;50314;50.618;10.642;2022-10-16T10:22:25;1.40;;;1.10;;
64063;SDS011;50314;50.618;10.642;2022-10-16T10:25:15;1.25;;;1.15;;
64063;SDS011;50314;50.618;10.642;2022-10-16T10:30:44;1.10;;;1.10;;
64063;SDS011;50314;50.618;10.642;2022-10-16T10:46:51;1.15;;;1.05;;
64063;SDS011;50314;50.618;10.642;2022-10-16T10:49:31;1.10;;;1.00;;
64063;SDS011;50314;50.618;10.642;2022-10-16T10:52:34;1.05;;;0.88;;
64063;SDS011;50314;50.618;10.642;2022-10-16T11:06:08;1.00;;;1.00;;
64063;SDS011;50314;50.618;10.642;2022-10-16T11:08:45;1.08;;;1.00;;
64063;SDS011;50314;50.618;10.642;2022-10-16T11:11:17;0.90;;;0.90;;
64063;SDS011;50314;50.618;10.642;2022-10-16T11:19:44;0.82;;;0.82;;
64063;SDS011;50314;50.618;10.642;2022-10-16T11:22:25;1.20;;;1.00;;
64063;SDS011;50314;50.618;10.642;2022-10-16T11:25:11;0.98;;;0.98;;
64063;SDS011;50314;50.618;10.642;2022-10-16T11:27:51;1.30;;;1.10;;
64063;SDS011;50314;50.618;10.642;2022-10-16T11:30:49;1.30;;;1.20;;
64063;SDS011;50314;50.618;10.642;2022-10-16T11:33:30;1.00;;;0.90;;
64063;SDS011;50314;50.618;10.642;2022-10-16T11:38:34;1.45;;;1.20;;
64063;SDS011;50314;50.618;10.642;2022-10-16T11:55:52;1.35;;;1.25;;
64063;SDS011;50314;50.618;10.642;2022-10-16T11:58:29;1.63;;;1.58;;
64063;SDS011;50314;50.618;10.642;2022-10-16T12:01:10;1.00;;;1.00;;
64063;SDS011;50314;50.618;10.642;2022-10-16T12:06:44;0.90;;;0.90;;
64063;SDS011;50314;50.618;10.642;2022-10-16T12:09:25;1.00;;;1.00;;
64063;SDS011;50314;50.618;10.642;2022-10-16T12:11:53;1.45;;;1.35;;
64063;SDS011;50314;50.618;10.642;2022-10-16T12:14:20;0.82;;;0.82;;
64063;SDS011;50314;50.618;10.642;2022-10-16T12:19:45;0.90;;;0.90;;
64063;SDS011;50314;50.618;10.642;2022-10-16T12:22:22;1.40;;;1.30;;
64063;SDS011;50314;50.618;10.642;2022-10-16T12:24:50;1.05;;;0.90;;
64063;SDS011;50314;50.618;10.642;2022-10-16T12:27:22;1.42;;;1.08;;
64063;SDS011;50314;50.618;10.642;2022-10-16T12:30:00;1.13;;;1.02;;
64063;SDS011;50314;50.618;10.642;2022-10-16T12:32:34;1.00;;;0.85;;
64063;SDS011;50314;50.618;10.642;2022-10-16T12:35:02;0.93;;;0.93;;
64063;SDS011;50314;50.618;10.642;2022-10-16T12:37:31;1.20;;;0.80;;
64063;SDS011;50314;50.618;10.642;2022-10-16T12:42:57;1.17;;;0.60;;
64063;SDS011;50314;50.618;10.642;2022-10-16T12:45:24;1.05;;;1.00;;
64063;SDS011;50314;50.618;10.642;2022-10-16T12:47:53;0.93;;;0.93;;
64063;SDS011;50314;50.618;10.642;2022-10-16T12:52:57;1.13;;;0.73;;
64063;SDS011;50314;50.618;10.642;2022-10-16T12:55:24;0.82;;;0.82;;
64063;SDS011;50314;50.618;10.642;2022-10-16T13:00:38;0.90;;;0.90;;
64063;SDS011;50314;50.618;10.642;2022-10-16T13:08:46;1.52;;;1.15;;
64063;SDS011;50314;50.618;10.642;2022-10-16T13:11:19;1.25;;;1.20;;
64063;SDS011;50314;50.618;10.642;2022-10-16T13:16:43;0.85;;;0.70;;
64063;SDS011;50314;50.618;10.642;2022-10-16T13:19:24;1.02;;;1.00;;
64063;SDS011;50314;50.618;10.642;2022-10-16T13:28:02;1.15;;;1.00;;
64063;SDS011;50314;50.618;10.642;2022-10-16T13:30:16;1.58;;;1.20;;
64063;SDS011;50314;50.618;10.642;2022-10-16T13:32:47;2.10;;;1.30;;
64063;SDS011;50314;50.618;10.642;2022-10-16T13:35:22;2.05;;;1.33;;
64063;SDS011;50314;50.618;10.642;2022-10-16T13:37:50;1.08;;;1.02;;
64063;SDS011;50314;50.618;10.642;2022-10-16T13:40:20;1.05;;;1.02;;
64063;SDS011;50314;50.618;10.642;2022-10-16T13:42:47;1.23;;;1.13;;
64063;SDS011;50314;50.618;10.642;2022-10-16T13:45:23;1.40;;;1.17;;
64063;SDS011;50314;50.618;10.642;2022-10-16T13:48:05;1.42;;;1.33;;
64063;SDS011;50314;50.618;10.642;2022-10-16T13:50:34;1.13;;;1.00;;
64063;SDS011;50314;50.618;10.642;2022-10-16T13:53:04;1.02;;;1.02;;
64063;SDS011;50314;50.618;10.642;2022-10-16T13:55:30;1.23;;;1.13;;
64063;SDS011;50314;50.618;10.642;2022-10-16T13:58:04;1.10;;;1.00;;
64063;SDS011;50314;50.618;10.642;2022-10-16T14:00:34;0.95;;;0.90;;
64063;SDS011;50314;50.618;10.642;2022-10-16T14:03:04;1.33;;;1.23;;
64063;SDS011;50314;50.618;10.642;2022-10-16T14:05:32;2.13;;;2.03;;
64063;SDS011;50314;50.618;10.642;2022-10-16T14:07:58;0.85;;;0.80;;
64063;SDS011;50314;50.618;10.642;2022-10-16T14:10:29;1.27;;;1.17;;
64063;SDS011;50314;50.618;10.642;2022-10-16T14:13:00;2.88;;;1.42;;
64063;SDS011;50314;50.618;10.642;2022-10-16T14:15:29;1.30;;;1.20;;
64063;SDS011;50314;50.618;10.642;2022-10-16T14:17:59;0.90;;;0.90;;
64063;SDS011;50314;50.618;10.642;2022-10-16T14:20:26;1.00;;;0.90;;
64063;SDS011;50314;50.618;10.642;2022-10-16T14:23:00;1.10;;;1.00;;
64063;SDS011;50314;50.618;10.642;2022-10-16T14:25:42;1.00;;;1.00;;
64063;SDS011;50314;50.618;10.642;2022-10-16T14:30:34;1.05;;;0.95;;
64063;SDS011;50314;50.618;10.642;2022-10-16T14:33:05;1.20;;;1.10;;
64063;SDS011;50314;50.618;10.642;2022-10-16T14:35:44;1.83;;;1.15;;
64063;SDS011;50314;50.618;10.642;2022-10-16T14:38:18;1.10;;;1.10;;
64063;SDS011;50314;50.618;10.642;2022-10-16T14:40:46;1.00;;;1.00;;
64063;SDS011;50314;50.618;10.642;2022-10-16T14:43:25;1.23;;;1.05;;
64063;SDS011;50314;50.618;10.642;2022-10-16T14:46:03;1.60;;;1.10;;
64063;SDS011;50314;50.618;10.642;2022-10-16T14:48:34;0.90;;;0.90;;
64063;SDS011;50314;50.618;10.642;2022-10-16T14:50:59;1.42;;;1.15;;
64063;SDS011;50314;50.618;10.642;2022-10-16T14:53:25;1.67;;;1.17;;
64063;SDS011;50314;50.618;10.642;2022-10-16T14:55:50;1.30;;;1.20;;
64063;SDS011;50314;50.618;10.642;2022-10-16T14:58:20;1.52;;;1.08;;
64063;SDS011;50314;50.618;10.642;2022-10-16T15:00:47;0.90;;;0.90;;
64063;SDS011;50314;50.618;10.642;2022-10-16T15:03:13;1.10;;;1.10;;
64063;SDS011;50314;50.618;10.642;2022-10-16T15:05:39;1.15;;;1.10;;
64063;SDS011;50314;50.618;10.642;2022-10-16T15:08:04;1.13;;;1.13;;
64063;SDS011;50314;50.618;10.642;2022-10-16T15:10:30;1.15;;;1.08;;
64063;SDS011;50314;50.618;10.642;2022-10-16T15:12:57;0.90;;;0.90;;
64063;SDS011;50314;50.618;10.642;2022-10-16T15:17:48;1.48;;;0.90;;
64063;SDS011;50314;50.618;10.642;2022-10-16T15:20:20;1.38;;;0.90;;
64063;SDS011;50314;50.618;10.642;2022-10-16T15:22:45;1.25;;;0.93;;
64063;SDS011;50314;50.618;10.642;2022-10-16T15:28:00;1.30;;;1.20;;
64063;SDS011;50314;50.618;10.642;2022-10-16T15:32:52;1.20;;;1.10;;
64063;SDS011;50314;50.618;10.642;2022-10-16T15:35:18;1.85;;;1.30;;
64063;SDS011;50314;50.618;10.642;2022-10-16T15:37:43;0.90;;;0.77;;
64063;SDS011;50314;50.618;10.642;2022-10-16T15:40:09;1.25;;;0.98;;
64063;SDS011;50314;50.618;10.642;2022-10-16T15:42:35;1.00;;;0.90;;
64063;SDS011;50314;50.618;10.642;2022-10-16T15:45:01;0.85;;;0.77;;
64063;SDS011;50314;50.618;10.642;2022-10-16T15:47:26;1.70;;;1.60;;
64063;SDS011;50314;50.618;10.642;2022-10-16T15:49:52;1.45;;;1.35;;
64063;SDS011;50314;50.618;10.642;2022-10-16T15:52:17;1.85;;;1.52;;
64063;SDS011;50314;50.618;10.642;2022-10-16T15:54:43;1.92;;;1.80;;
64063;SDS011;50314;50.618;10.642;2022-10-16T15:57:08;1.63;;;1.52;;
64063;SDS011;50314;50.618;10.642;2022-10-16T15:59:34;1.90;;;1.80;;
64063;SDS011;50314;50.618;10.642;2022-10-16T16:01:59;1.30;;;1.20;;
64063;SDS011;50314;50.618;10.642;2022-10-16T16:04:25;1.70;;;1.60;;
64063;SDS011;50314;50.618;10.642;2022-10-16T16:06:50;1.92;;;1.83;;
64063;SDS011;50314;50.618;10.642;2022-10-16T16:09:16;2.08;;;1.98;;
64063;SDS011;50314;50.618;10.642;2022-10-16T16:11:41;2.25;;;2.05;;
64063;SDS011;50314;50.618;10.642;2022-10-16T16:14:07;1.52;;;1.42;;
64063;SDS011;50314;50.618;10.642;2022-10-16T16:16:37;1.50;;;1.40;;
64063;SDS011;50314;50.618;10.642;2022-10-16T16:19:06;1.70;;;1.60;;
64063;SDS011;50314;50.618;10.642;2022-10-16T16:21:32;1.80;;;1.70;;
64063;SDS011;50314;50.618;10.642;2022-10-16T16:23:58;1.67;;;1.58;;
64063;SDS011;50314;50.618;10.642;2022-10-16T16:26:25;2.08;;;1.63;;
64063;SDS011;50314;50.618;10.642;2022-10-16T16:28:59;2.95;;;1.52;;
64063;SDS011;50314;50.618;10.642;2022-10-16T16:31:26;2.03;;;1.92;;
64063;SDS011;50314;50.618;10.642;2022-10-16T16:33:53;1.35;;;1.25;;
64063;SDS011;50314;50.618;10.642;2022-10-16T16:36:19;2.45;;;2.25;;
64063;SDS011;50314;50.618;10.642;2022-10-16T16:38:45;1.50;;;1.40;;
64063;SDS011;50314;50.618;10.642;2022-10-16T16:41:12;1.67;;;1.58;;
64063;SDS011;50314;50.618;10.642;2022-10-16T16:46:03;2.88;;;2.67;;